createdAt,value
2022-09-09T05:02:34.431Z,15.06
2022-09-09T05:08:10.329Z,15.10
2022-09-09T05:13:33.010Z,15.15
2022-09-09T05:18:54.603Z,15.16
2022-09-09T05:24:16.005Z,15.19
2022-09-09T05:29:37.482Z,15.25
2022-09-09T05:35:00.938Z,15.32
2022-09-09T05:40:22.705Z,15.39
2022-09-09T05:45:44.241Z,15.43
2022-09-09T05:51:07.917Z,15.46
2022-09-09T05:56:30.351Z,15.58
2022-09-09T06:01:54.269Z,15.69
2022-09-09T06:07:21.133Z,15.77
2022-09-09T06:12:42.431Z,15.92
2022-09-09T06:18:03.823Z,16.11
2022-09-09T06:23:26.271Z,16.17
2022-09-09T06:28:48.754Z,16.29
2022-09-09T06:34:09.982Z,16.68
2022-09-09T06:39:34.965Z,16.89
2022-09-09T06:44:56.305Z,17.05
2022-09-09T06:50:31.475Z,17.34
2022-09-09T06:55:52.812Z,17.64
2022-09-09T07:01:20.267Z,17.95
2022-09-09T07:06:47.106Z,18.18
2022-09-09T07:12:13.723Z,18.54
2022-09-09T07:17:42.012Z,18.91
2022-09-09T07:23:03.027Z,19.36
2022-09-09T07:28:25.038Z,19.61
2022-09-09T07:33:46.601Z,20.05
2022-09-09T07:39:11.391Z,20.68
2022-09-09T07:44:35.892Z,21.40
2022-09-09T07:50:05.692Z,22.10
2022-09-09T07:55:27.530Z,23.11
2022-09-09T08:00:49.105Z,23.61
2022-09-09T08:06:10.304Z,24.51
2022-09-09T08:11:36.677Z,25.19
2022-09-09T08:17:00.008Z,25.86
2022-09-09T08:22:23.136Z,26.92
2022-09-09T08:27:44.784Z,28.20
2022-09-09T08:33:06.435Z,29.17
2022-09-09T08:38:29.649Z,29.54
2022-09-09T08:43:59.961Z,32.34
2022-09-09T08:49:29.613Z,36.83
2022-09-09T08:54:52.906Z,40.53
2022-09-09T09:00:16.072Z,43.45
2022-09-09T09:05:41.474Z,41.47
2022-09-09T09:11:03.425Z,35.01
2022-09-09T09:16:40.016Z,31.08
2022-09-09T09:22:23.452Z,28.57
2022-09-09T09:27:56.165Z,28.21
2022-09-09T09:33:21.570Z,26.04
2022-09-09T09:44:38.513Z,27.39
2022-09-09T09:50:20.019Z,31.10
2022-09-09T09:55:54.032Z,34.44
2022-09-09T10:01:34.314Z,38.69
2022-09-09T10:06:59.111Z,41.46
2022-09-09T10:12:45.277Z,46.90
2022-09-09T10:18:24.693Z,49.23
2022-09-09T10:24:20.119Z,39.74
2022-09-09T10:30:03.448Z,34.89
2022-09-09T10:35:36.120Z,33.67
2022-09-09T10:40:57.639Z,33.45
2022-09-09T10:46:21.723Z,39.33
2022-09-09T10:51:46.198Z,45.84
2022-09-09T10:57:18.959Z,48.56
2022-09-09T11:02:43.014Z,48.14
2022-09-09T11:08:19.094Z,47.07
2022-09-09T11:13:43.825Z,43.78
2022-09-09T11:19:15.167Z,38.61
2022-09-09T11:24:46.592Z,36.71
2022-09-09T11:30:37.700Z,40.22
2022-09-09T11:36:20.724Z,38.02
2022-09-09T11:41:41.712Z,33.48
2022-09-09T11:47:02.905Z,32.61
2022-09-09T11:52:36.582Z,33.05
2022-09-09T11:58:01.479Z,32.61
2022-09-09T12:03:38.187Z,35.09
2022-09-09T12:09:09.497Z,38.01
2022-09-09T12:14:55.718Z,38.76
2022-09-09T12:20:23.015Z,38.35
2022-09-09T12:26:01.995Z,33.66
2022-09-09T12:31:54.509Z,33.17
2022-09-09T12:37:27.490Z,34.49
2022-09-09T12:42:48.473Z,33.96
2022-09-09T12:48:16.716Z,32.16
2022-09-09T12:53:39.956Z,32.47
2022-09-09T12:59:01.853Z,31.96
2022-09-09T13:04:25.323Z,32.16
2022-09-09T13:09:47.871Z,31.23
2022-09-09T13:15:21.422Z,30.42
2022-09-09T13:20:50.208Z,29.52
2022-09-09T13:26:24.930Z,29.41
2022-09-09T13:31:46.555Z,29.08
2022-09-09T13:37:24.538Z,28.81
2022-09-09T13:42:46.000Z,28.22
2022-09-09T13:48:11.578Z,27.69
2022-09-09T13:53:32.828Z,27.26
2022-09-09T13:58:53.848Z,26.98
2022-09-09T14:04:14.799Z,26.99
2022-09-09T14:09:35.931Z,26.92
2022-09-09T14:14:56.984Z,26.82
2022-09-09T14:20:18.577Z,26.57
2022-09-09T14:25:42.383Z,26.54
2022-09-09T14:31:04.929Z,26.84
2022-09-09T14:36:25.965Z,26.96
2022-09-09T14:41:47.005Z,26.87
2022-09-09T14:47:11.794Z,26.45
2022-09-09T14:52:33.096Z,26.15
2022-09-09T14:57:56.776Z,26.02
2022-09-09T15:03:18.098Z,26.21
2022-09-09T15:08:42.530Z,26.18
2022-09-09T15:14:03.734Z,26.10
2022-09-09T15:19:24.527Z,25.68
2022-09-09T15:24:45.304Z,25.27
2022-09-09T15:30:06.997Z,24.91
2022-09-09T15:35:27.841Z,24.71
2022-09-09T15:40:55.507Z,24.40
2022-09-09T15:46:39.187Z,24.20
2022-09-09T15:52:04.583Z,23.94
2022-09-09T15:57:25.465Z,23.86
2022-09-09T16:02:48.414Z,23.82
2022-09-09T16:08:09.160Z,23.76
2022-09-09T16:13:33.733Z,23.65
2022-09-09T16:18:56.973Z,23.52
2022-09-09T16:24:20.377Z,23.27
2022-09-09T16:29:41.383Z,23.13
2022-09-09T16:35:02.143Z,23.01
2022-09-09T16:40:23.059Z,22.82
2022-09-09T16:45:45.405Z,22.65
2022-09-09T16:51:15.206Z,22.47
2022-09-09T16:56:44.088Z,22.29
2022-09-09T17:02:06.086Z,22.12
2022-09-09T17:07:27.072Z,21.95
2022-09-09T17:12:47.816Z,21.81
2022-09-09T17:18:08.803Z,21.69
2022-09-09T17:23:29.979Z,21.51
2022-09-09T17:28:50.996Z,21.27
2022-09-09T17:34:11.920Z,21.11
2022-09-09T17:39:33.408Z,20.94
2022-09-09T17:44:54.238Z,20.77
2022-09-09T17:50:15.007Z,20.69
2022-09-09T17:55:35.942Z,20.54
2022-09-09T18:00:56.833Z,20.40
2022-09-09T18:06:24.171Z,20.21
2022-09-09T18:11:48.558Z,20.10
2022-09-09T18:17:09.817Z,19.97
2022-09-09T18:22:31.686Z,19.77
2022-09-09T18:27:53.483Z,19.63
2022-09-09T18:33:14.702Z,19.50
2022-09-09T18:38:36.135Z,19.40
2022-09-09T18:44:03.393Z,19.22
2022-09-09T18:49:25.101Z,19.14
2022-09-09T18:54:47.990Z,19.07
2022-09-09T19:00:10.424Z,18.98
2022-09-09T19:05:31.532Z,18.90
2022-09-09T19:10:53.150Z,18.86
2022-09-09T19:16:15.282Z,18.69
2022-09-09T19:21:38.756Z,18.56
2022-09-09T19:27:02.264Z,18.46
2022-09-09T19:32:52.287Z,18.40
2022-09-09T19:38:04.103Z,18.33
2022-09-09T19:43:24.989Z,18.31
2022-09-09T19:48:47.067Z,18.20
2022-09-09T19:54:10.767Z,18.16
2022-09-09T19:59:31.631Z,18.04
2022-09-09T20:04:52.486Z,17.98
2022-09-09T20:10:13.366Z,17.87
2022-09-09T20:15:34.224Z,17.85
2022-09-09T20:21:05.459Z,17.81
2022-09-09T20:26:30.393Z,17.75
2022-09-09T20:31:51.984Z,17.69
2022-09-09T20:37:13.727Z,17.66
2022-09-09T20:42:34.967Z,17.52
2022-09-09T20:47:57.087Z,17.37
2022-09-09T20:53:18.105Z,17.29
2022-09-09T20:58:39.229Z,17.14
2022-09-09T21:04:00.166Z,17.05
2022-09-09T21:09:24.612Z,16.96
2022-09-09T21:14:45.393Z,16.96
2022-09-09T21:20:06.933Z,16.87
2022-09-09T21:25:27.855Z,16.80
2022-09-09T21:30:54.839Z,16.81
2022-09-09T21:36:16.034Z,16.78
2022-09-09T21:41:37.030Z,16.66
2022-09-09T21:46:57.608Z,16.62
2022-09-09T21:52:18.170Z,16.56
2022-09-09T21:57:38.741Z,16.57
